Time;durP1;ratioP1;P1;durP2;ratioP2;P2;SDS_P1;SDS_P2;PMS_P1;PMS_P2;Temp;Humidity;BMP_temperature;BMP_pressure;BME280_temperature;BME280_humidity;BME280_pressure;Samples;Min_cycle;Max_cycle;Signal;HPM_P1;HPM_P2
2023/10/16 00:00:43;;;;;;;0.70;0.70;;;;;;;;;;4979940;28;20029;-79
2023/10/16 00:03:12;;;;;;;0.75;0.63;;;;;;;;;;4997392;28;20046;-79
2023/10/16 00:05:44;;;;;;;0.90;0.77;;;;;;;;;;4980184;28;20022;-79
2023/10/16 00:08:11;;;;;;;0.73;0.70;;;;;;;;;;4997400;28;20033;-78
2023/10/16 00:10:37;;;;;;;1.20;0.80;;;;;;;;;;4980377;28;20030;-80
2023/10/16 00:13:16;;;;;;;0.63;0.60;;;;;;;;;;4979958;28;20030;-78
2023/10/16 00:15:49;;;;;;;0.70;0.70;;;;;;;;;;4979923;28;20053;-81
2023/10/16 00:18:22;;;;;;;0.60;0.60;;;;;;;;;;4982342;28;20034;-80
2023/10/16 00:20:49;;;;;;;0.95;0.70;;;;;;;;;;4983173;28;20022;-79
2023/10/16 00:23:17;;;;;;;0.70;0.60;;;;;;;;;;4982868;28;20030;-79
2023/10/16 00:25:50;;;;;;;0.68;0.60;;;;;;;;;;4982675;28;20026;-81
2023/10/16 00:28:22;;;;;;;0.63;0.60;;;;;;;;;;5001001;28;20105;-79
2023/10/16 00:30:49;;;;;;;1.05;0.90;;;;;;;;;;5001426;28;20023;-80
2023/10/16 00:33:16;;;;;;;0.60;0.60;;;;;;;;;;4983834;28;20037;-79
2023/10/16 00:35:45;;;;;;;0.60;0.60;;;;;;;;;;5005517;28;20109;-79
2023/10/16 00:38:13;;;;;;;0.52;0.52;;;;;;;;;;4985900;28;20054;-80
2023/10/16 00:43:28;;;;;;;0.90;0.80;;;;;;;;;;4998757;28;20528;-80
2023/10/16 00:46:06;;;;;;;0.90;0.80;;;;;;;;;;4981555;28;20084;-80
2023/10/16 00:48:32;;;;;;;0.90;0.77;;;;;;;;;;4980895;28;20529;-80
2023/10/16 00:51:02;;;;;;;0.70;0.60;;;;;;;;;;4981784;28;20493;-80
2023/10/16 00:53:28;;;;;;;0.85;0.80;;;;;;;;;;4981905;28;20031;-81
2023/10/16 00:55:55;;;;;;;0.60;0.60;;;;;;;;;;4982776;28;20042;-80
2023/10/16 00:58:21;;;;;;;0.60;0.60;;;;;;;;;;4982109;28;20019;-80
2023/10/16 01:00:48;;;;;;;0.70;0.70;;;;;;;;;;4983519;28;20034;-80
2023/10/16 01:03:16;;;;;;;0.70;0.60;;;;;;;;;;4983455;28;20061;-80
2023/10/16 01:05:42;;;;;;;0.60;0.60;;;;;;;;;;4985717;28;20022;-79
2023/10/16 01:08:10;;;;;;;0.70;0.70;;;;;;;;;;4989446;28;20018;-80
2023/10/16 01:10:40;;;;;;;0.60;0.60;;;;;;;;;;4982161;28;20034;-79
2023/10/16 01:13:10;;;;;;;0.80;0.75;;;;;;;;;;4980789;28;20034;-79
2023/10/16 01:15:43;;;;;;;0.80;0.70;;;;;;;;;;4980738;28;20022;-80
2023/10/16 01:18:11;;;;;;;0.70;0.70;;;;;;;;;;4981145;28;20038;-80
2023/10/16 01:20:38;;;;;;;0.70;0.70;;;;;;;;;;4981435;28;20120;-80
2023/10/16 01:23:07;;;;;;;0.60;0.60;;;;;;;;;;4980759;28;20030;-81
2023/10/16 01:25:33;;;;;;;0.90;0.75;;;;;;;;;;4998830;28;20034;-79
2023/10/16 01:28:00;;;;;;;0.60;0.60;;;;;;;;;;4980907;28;20026;-79
2023/10/16 01:30:26;;;;;;;0.65;0.63;;;;;;;;;;4981300;28;20026;-80
2023/10/16 01:32:52;;;;;;;0.70;0.60;;;;;;;;;;4980925;28;20033;-80
2023/10/16 01:35:18;;;;;;;0.60;0.60;;;;;;;;;;4981412;28;20359;-80
2023/10/16 01:37:46;;;;;;;1.10;1.00;;;;;;;;;;4981492;28;20023;-80
2023/10/16 01:42:44;;;;;;;0.50;0.50;;;;;;;;;;4999158;28;20084;-80
2023/10/16 01:45:12;;;;;;;0.77;0.70;;;;;;;;;;4982194;28;20030;-79
2023/10/16 01:47:39;;;;;;;0.60;0.60;;;;;;;;;;4983947;28;20026;-79
2023/10/16 01:50:05;;;;;;;0.75;0.60;;;;;;;;;;5004003;28;20025;-80
2023/10/16 01:52:34;;;;;;;0.60;0.60;;;;;;;;;;4986430;28;20121;-78
2023/10/16 01:55:00;;;;;;;0.60;0.60;;;;;;;;;;4987710;28;20029;-79
2023/10/16 01:57:26;;;;;;;0.50;0.50;;;;;;;;;;4987352;28;20026;-78
2023/10/16 01:59:53;;;;;;;0.80;0.70;;;;;;;;;;4988240;28;20112;-78
2023/10/16 02:02:19;;;;;;;0.70;0.63;;;;;;;;;;4987632;28;20142;-80
2023/10/16 02:04:45;;;;;;;1.05;0.80;;;;;;;;;;4986716;28;20347;-80
2023/10/16 02:07:14;;;;;;;0.93;0.77;;;;;;;;;;4985137;28;20026;-80
2023/10/16 02:09:40;;;;;;;1.00;0.80;;;;;;;;;;4985089;28;20030;-80
2023/10/16 02:12:16;;;;;;;0.75;0.70;;;;;;;;;;4985543;28;20033;-80
2023/10/16 02:14:42;;;;;;;0.93;0.75;;;;;;;;;;4986033;28;20030;-79
2023/10/16 02:17:30;;;;;;;0.80;0.77;;;;;;;;;;4987091;28;20119;-78
2023/10/16 02:19:55;;;;;;;0.82;0.73;;;;;;;;;;5003202;28;20085;-79
2023/10/16 02:22:22;;;;;;;0.50;0.50;;;;;;;;;;4984320;28;20081;-80
2023/10/16 02:24:49;;;;;;;0.70;0.60;;;;;;;;;;4984995;28;20046;-80
2023/10/16 02:27:18;;;;;;;0.60;0.60;;;;;;;;;;4984891;28;20371;-79
2023/10/16 02:29:51;;;;;;;0.50;0.50;;;;;;;;;;4985575;28;20032;-81
2023/10/16 02:32:18;;;;;;;0.65;0.60;;;;;;;;;;4984418;28;20081;-80
2023/10/16 02:34:44;;;;;;;0.60;0.60;;;;;;;;;;4984314;28;20109;-81
2023/10/16 02:37:13;;;;;;;0.68;0.60;;;;;;;;;;4985114;28;20474;-80
2023/10/16 02:39:41;;;;;;;0.85;0.70;;;;;;;;;;4985093;28;20023;-80
2023/10/16 02:42:14;;;;;;;0.50;0.50;;;;;;;;;;5001351;28;20018;-79
2023/10/16 02:44:42;;;;;;;0.60;0.60;;;;;;;;;;5001379;28;20069;-80
2023/10/16 02:47:21;;;;;;;0.70;0.70;;;;;;;;;;4984220;28;20030;-79
2023/10/16 02:49:47;;;;;;;0.70;0.60;;;;;;;;;;4983586;28;20026;-81
2023/10/16 02:52:17;;;;;;;0.85;0.70;;;;;;;;;;4999100;28;20057;-79
2023/10/16 02:54:44;;;;;;;0.68;0.68;;;;;;;;;;4981738;28;20034;-80
2023/10/16 02:57:11;;;;;;;0.82;0.70;;;;;;;;;;4981150;28;20042;-78
2023/10/16 02:59:43;;;;;;;0.70;0.60;;;;;;;;;;4981952;28;20023;-78
2023/10/16 03:02:22;;;;;;;0.60;0.60;;;;;;;;;;4982249;28;20046;-78
2023/10/16 03:04:51;;;;;;;0.55;0.50;;;;;;;;;;4982740;28;20081;-79
2023/10/16 03:07:20;;;;;;;0.70;0.60;;;;;;;;;;4982432;28;20094;-80
2023/10/16 03:09:49;;;;;;;0.60;0.60;;;;;;;;;;4982034;28;20034;-79
2023/10/16 03:12:15;;;;;;;0.60;0.60;;;;;;;;;;4983207;28;20026;-80
2023/10/16 03:14:58;;;;;;;0.55;0.55;;;;;;;;;;4982842;28;20027;-79
2023/10/16 03:19:57;;;;;;;0.55;0.55;;;;;;;;;;5001422;28;20034;-79
2023/10/16 03:22:23;;;;;;;0.82;0.70;;;;;;;;;;4987014;28;20080;-79
2023/10/16 03:24:51;;;;;;;0.75;0.70;;;;;;;;;;4985285;28;20023;-79
2023/10/16 03:27:29;;;;;;;0.63;0.63;;;;;;;;;;4981293;28;20022;-79
2023/10/16 03:29:56;;;;;;;0.73;0.70;;;;;;;;;;4999006;28;20142;-79
2023/10/16 03:32:28;;;;;;;0.80;0.70;;;;;;;;;;4980173;28;20497;-79
2023/10/16 03:34:57;;;;;;;0.60;0.60;;;;;;;;;;4981417;28;20030;-78
2023/10/16 03:37:24;;;;;;;0.80;0.70;;;;;;;;;;4980668;28;20026;-78
2023/10/16 03:39:56;;;;;;;0.63;0.60;;;;;;;;;;4980616;28;20479;-78
2023/10/16 03:42:23;;;;;;;0.50;0.50;;;;;;;;;;4980675;28;20049;-79
2023/10/16 03:44:49;;;;;;;0.70;0.70;;;;;;;;;;4981220;28;20105;-79
2023/10/16 03:47:15;;;;;;;0.80;0.70;;;;;;;;;;4980687;28;20061;-79
2023/10/16 03:49:41;;;;;;;0.70;0.70;;;;;;;;;;4980888;28;20114;-78
2023/10/16 03:52:08;;;;;;;0.80;0.70;;;;;;;;;;4981121;28;20432;-79
2023/10/16 03:54:39;;;;;;;0.98;0.82;;;;;;;;;;4980898;28;20037;-79
2023/10/16 03:57:11;;;;;;;1.00;0.80;;;;;;;;;;4981321;28;20077;-79
2023/10/16 03:59:42;;;;;;;0.80;0.70;;;;;;;;;;4981900;28;20018;-78
2023/10/16 04:02:16;;;;;;;0.80;0.70;;;;;;;;;;4977608;28;20070;-80
2023/10/16 04:04:42;;;;;;;0.90;0.80;;;;;;;;;;4978319;28;20082;-80
2023/10/16 04:07:13;;;;;;;0.70;0.63;;;;;;;;;;4978168;28;20467;-78
2023/10/16 04:09:49;;;;;;;0.60;0.60;;;;;;;;;;4979792;28;20403;-79
2023/10/16 04:12:21;;;;;;;0.70;0.68;;;;;;;;;;4980303;28;20023;-77
2023/10/16 04:14:54;;;;;;;0.52;0.52;;;;;;;;;;4982716;28;20053;-80
2023/10/16 04:17:24;;;;;;;0.70;0.70;;;;;;;;;;4982599;28;20023;-78
2023/10/16 04:19:53;;;;;;;0.57;0.57;;;;;;;;;;4977030;28;20019;-78
2023/10/16 04:22:25;;;;;;;1.02;0.80;;;;;;;;;;4978146;28;20035;-80
2023/10/16 04:24:54;;;;;;;0.77;0.70;;;;;;;;;;4977307;28;20375;-78
2023/10/16 04:27:29;;;;;;;0.50;0.50;;;;;;;;;;4977629;28;20475;-77
2023/10/16 04:35:29;;;;;;;1.25;0.90;;;;;;;;;;4978684;28;20030;-77
2023/10/16 04:37:56;;;;;;;0.70;0.70;;;;;;;;;;4976953;28;20099;-79
2023/10/16 04:43:13;;;;;;;0.85;0.80;;;;;;;;;;4978626;28;20041;-78
2023/10/16 04:45:39;;;;;;;0.65;0.60;;;;;;;;;;4976504;28;20027;-79
2023/10/16 06:14:14;;;;;;;0.50;0.50;;;;;;;;;;4998213;28;20093;-79
2023/10/16 06:16:40;;;;;;;1.05;0.88;;;;;;;;;;4981743;28;20023;-80
2023/10/16 06:19:19;;;;;;;0.55;0.55;;;;;;;;;;4982214;28;20029;-77
2023/10/16 06:21:46;;;;;;;0.60;0.60;;;;;;;;;;4983564;28;20058;-78
2023/10/16 06:24:33;;;;;;;0.60;0.60;;;;;;;;;;4983948;28;20109;-78
2023/10/16 06:27:00;;;;;;;0.80;0.70;;;;;;;;;;4983246;28;20018;-80
2023/10/16 06:29:36;;;;;;;0.57;0.57;;;;;;;;;;5000911;28;20022;-79
2023/10/16 06:32:18;;;;;;;0.85;0.70;;;;;;;;;;4982212;28;20462;-79
2023/10/16 06:35:07;;;;;;;0.60;0.60;;;;;;;;;;4985186;28;20394;-79
2023/10/16 06:37:35;;;;;;;0.85;0.80;;;;;;;;;;4987619;28;20058;-79
2023/10/16 06:40:01;;;;;;;1.10;0.90;;;;;;;;;;4988748;28;20109;-79
2023/10/16 06:42:28;;;;;;;0.65;0.65;;;;;;;;;;5006577;28;20026;-80
2023/10/16 06:44:56;;;;;;;1.48;1.08;;;;;;;;;;4990454;28;20026;-78
2023/10/16 06:47:47;;;;;;;1.02;0.80;;;;;;;;;;4989078;28;20027;-79
2023/10/16 06:53:03;;;;;;;0.77;0.70;;;;;;;;;;4969284;28;20027;-78
2023/10/16 06:55:29;;;;;;;0.80;0.65;;;;;;;;;;4987832;28;20109;-81
2023/10/16 06:57:55;;;;;;;0.60;0.57;;;;;;;;;;4988049;28;20057;-78
2023/10/16 07:00:27;;;;;;;0.70;0.70;;;;;;;;;;4984715;28;20061;-78
2023/10/16 07:02:57;;;;;;;0.63;0.63;;;;;;;;;;4982476;28;20053;-80
2023/10/16 07:05:23;;;;;;;0.60;0.60;;;;;;;;;;4982828;28;20034;-79
2023/10/16 07:07:49;;;;;;;2.03;1.27;;;;;;;;;;5000743;28;20112;-79
2023/10/16 07:10:15;;;;;;;0.80;0.80;;;;;;;;;;4984097;28;20033;-79
2023/10/16 07:12:56;;;;;;;0.60;0.60;;;;;;;;;;4984887;28;20026;-79
2023/10/16 07:15:25;;;;;;;0.98;0.70;;;;;;;;;;4984082;28;20022;-79
2023/10/16 07:17:52;;;;;;;0.80;0.70;;;;;;;;;;4984193;28;20022;-80
2023/10/16 07:20:26;;;;;;;0.70;0.70;;;;;;;;;;4984088;28;20023;-80
2023/10/16 07:22:56;;;;;;;1.38;0.82;;;;;;;;;;4982736;28;20120;-80
2023/10/16 07:25:23;;;;;;;0.80;0.70;;;;;;;;;;4984530;28;20378;-79
2023/10/16 07:27:49;;;;;;;0.70;0.60;;;;;;;;;;4986185;28;20022;-81
2023/10/16 07:30:25;;;;;;;0.70;0.65;;;;;;;;;;4984464;28;20024;-80
2023/10/16 07:32:51;;;;;;;0.50;0.50;;;;;;;;;;4986099;28;20445;-81
2023/10/16 07:35:18;;;;;;;0.90;0.70;;;;;;;;;;4986453;28;20019;-81
2023/10/16 07:37:53;;;;;;;0.70;0.60;;;;;;;;;;4987060;28;20033;-81
2023/10/16 07:40:25;;;;;;;0.75;0.70;;;;;;;;;;4987114;28;20023;-80
2023/10/16 07:42:52;;;;;;;;;;;;;;;;;;4989779;28;20098;-80
2023/10/16 07:45:21;;;;;;;0.75;0.70;;;;;;;;;;4987765;28;19996;-79
2023/10/16 07:47:51;;;;;;;0.60;0.60;;;;;;;;;;4988457;28;20027;-79
2023/10/16 07:50:17;;;;;;;0.60;0.60;;;;;;;;;;4986887;28;20019;-79
2023/10/16 07:52:43;;;;;;;0.70;0.60;;;;;;;;;;4989643;28;20022;-81
2023/10/16 07:55:18;;;;;;;1.55;1.17;;;;;;;;;;4992963;28;20018;-79
2023/10/16 07:57:45;;;;;;;0.85;0.70;;;;;;;;;;4989861;28;20054;-82
2023/10/16 08:00:15;;;;;;;0.90;0.70;;;;;;;;;;4983088;28;20026;-80
2023/10/16 08:02:47;;;;;;;0.80;0.70;;;;;;;;;;5001072;28;20049;-80
2023/10/16 08:05:16;;;;;;;1.10;1.00;;;;;;;;;;4982554;28;20062;-81
2023/10/16 08:07:49;;;;;;;0.60;0.60;;;;;;;;;;4986556;28;20108;-80
2023/10/16 08:10:40;;;;;;;0.52;0.52;;;;;;;;;;5002214;28;20085;-79
2023/10/16 08:13:12;;;;;;;0.85;0.70;;;;;;;;;;5020663;28;20036;-79
2023/10/16 08:15:48;;;;;;;0.50;0.50;;;;;;;;;;5003397;28;20080;-79
2023/10/16 08:18:15;;;;;;;2.95;1.25;;;;;;;;;;5002003;28;20030;-81
2023/10/16 08:21:00;;;;;;;0.82;0.80;;;;;;;;;;5002695;28;20025;-79
2023/10/16 08:23:34;;;;;;;0.80;0.60;;;;;;;;;;5002446;28;20056;-80
2023/10/16 08:26:14;;;;;;;0.88;0.80;;;;;;;;;;5002615;28;20033;-79
2023/10/16 08:28:45;;;;;;;0.80;0.70;;;;;;;;;;5002203;28;20025;-79
2023/10/16 08:31:23;;;;;;;0.75;0.70;;;;;;;;;;5002629;28;20141;-80
2023/10/16 08:33:54;;;;;;;0.70;0.70;;;;;;;;;;5001893;28;20030;-78
2023/10/16 08:36:21;;;;;;;0.85;0.65;;;;;;;;;;5002277;28;20085;-80
2023/10/16 08:38:53;;;;;;;1.02;0.80;;;;;;;;;;5002376;28;20034;-81
2023/10/16 08:41:30;;;;;;;1.25;0.85;;;;;;;;;;5002005;28;20022;-80
2023/10/16 08:44:03;;;;;;;1.35;1.25;;;;;;;;;;4991281;28;20112;-79
2023/10/16 08:46:30;;;;;;;1.10;0.90;;;;;;;;;;5002785;28;20069;-81
2023/10/16 08:48:57;;;;;;;0.98;0.80;;;;;;;;;;5002022;28;20025;-81
2023/10/16 08:51:23;;;;;;;0.95;0.75;;;;;;;;;;5001191;28;20049;-80
2023/10/16 08:53:58;;;;;;;0.77;0.77;;;;;;;;;;5004812;28;20054;-79
2023/10/16 08:56:25;;;;;;;0.90;0.70;;;;;;;;;;4985618;28;20027;-80
2023/10/16 08:58:55;;;;;;;0.93;0.70;;;;;;;;;;4983974;28;20026;-83
2023/10/16 09:01:23;;;;;;;0.73;0.70;;;;;;;;;;4974832;28;20416;-80
2023/10/16 09:03:50;;;;;;;0.80;0.68;;;;;;;;;;4964474;28;20451;-81
2023/10/16 09:06:23;;;;;;;0.90;0.70;;;;;;;;;;4976227;28;20018;-81
2023/10/16 09:08:50;;;;;;;0.50;0.50;;;;;;;;;;5002796;28;20022;-79
2023/10/16 09:11:16;;;;;;;0.90;0.70;;;;;;;;;;5014412;28;20026;-81
2023/10/16 09:13:52;;;;;;;0.57;0.57;;;;;;;;;;4998480;28;20097;-79
2023/10/16 09:16:21;;;;;;;1.00;0.80;;;;;;;;;;5002373;28;20022;-81
2023/10/16 09:18:59;;;;;;;0.60;0.60;;;;;;;;;;5001478;28;20033;-81
2023/10/16 09:21:28;;;;;;;0.98;0.80;;;;;;;;;;5002738;28;20425;-79
2023/10/16 09:24:02;;;;;;;1.15;0.80;;;;;;;;;;5002797;28;20029;-79
2023/10/16 09:26:29;;;;;;;1.02;0.88;;;;;;;;;;5003616;28;20361;-78
2023/10/16 09:28:55;;;;;;;0.60;0.60;;;;;;;;;;5003542;28;20026;-80
2023/10/16 09:31:24;;;;;;;0.60;0.60;;;;;;;;;;5000840;28;20094;-79
2023/10/16 09:33:51;;;;;;;0.82;0.77;;;;;;;;;;5005139;28;20030;-81
2023/10/16 09:36:18;;;;;;;0.70;0.70;;;;;;;;;;5005330;28;20022;-79
2023/10/16 09:38:56;;;;;;;0.70;0.60;;;;;;;;;;5022382;28;20043;-78
2023/10/16 09:44:09;;;;;;;0.60;0.60;;;;;;;;;;5024144;28;20040;-78
2023/10/16 09:49:13;;;;;;;0.60;0.60;;;;;;;;;;5026095;28;20057;-80
2023/10/16 09:51:39;;;;;;;0.90;0.70;;;;;;;;;;5008318;28;20428;-79
2023/10/16 09:54:09;;;;;;;0.68;0.60;;;;;;;;;;5009312;28;20021;-79
2023/10/16 09:56:39;;;;;;;0.70;0.70;;;;;;;;;;5010544;28;20086;-79
2023/10/16 09:59:12;;;;;;;0.98;0.88;;;;;;;;;;5017942;28;20018;-81
2023/10/16 10:01:45;;;;;;;1.00;0.80;;;;;;;;;;4991170;28;20033;-79
2023/10/16 10:04:11;;;;;;;;;;;;;;;;;;5009048;28;20026;-79
2023/10/16 10:06:39;;;;;;;0.75;0.65;;;;;;;;;;4989994;28;19905;-80
2023/10/16 10:11:47;;;;;;;1.45;1.00;;;;;;;;;;5007245;28;20046;-80
2023/10/16 10:16:56;;;;;;;0.85;0.70;;;;;;;;;;5005714;28;20057;-78
2023/10/16 10:19:35;;;;;;;0.80;0.77;;;;;;;;;;4987972;28;20497;-79
2023/10/16 10:22:06;;;;;;;0.93;0.77;;;;;;;;;;4983863;28;20386;-78
2023/10/16 10:24:39;;;;;;;2.03;0.75;;;;;;;;;;5001979;28;20025;-80
2023/10/16 10:27:11;;;;;;;1.33;1.17;;;;;;;;;;5005431;28;20037;-80
2023/10/16 10:29:41;;;;;;;0.50;0.50;;;;;;;;;;5006966;28;20018;-79
2023/10/16 10:32:12;;;;;;;0.60;0.60;;;;;;;;;;5006953;28;20030;-80
2023/10/16 10:34:38;;;;;;;0.85;0.80;;;;;;;;;;5007029;28;20026;-79
2023/10/16 10:37:24;;;;;;;0.70;0.70;;;;;;;;;;5006296;28;20123;-80
2023/10/16 10:39:52;;;;;;;0.98;0.70;;;;;;;;;;5001384;28;20072;-77
2023/10/16 10:42:23;;;;;;;0.85;0.70;;;;;;;;;;5004044;28;20125;-80
2023/10/16 10:45:17;;;;;;;1.00;0.90;;;;;;;;;;5004011;28;20105;-78
2023/10/16 10:47:43;;;;;;;0.93;0.70;;;;;;;;;;5020465;28;20026;-79
2023/10/16 10:50:13;;;;;;;0.70;0.70;;;;;;;;;;5004010;28;20025;-79
2023/10/16 10:52:39;;;;;;;0.73;0.70;;;;;;;;;;5004194;28;20131;-81
2023/10/16 10:55:14;;;;;;;0.73;0.60;;;;;;;;;;5021729;28;20022;-79
2023/10/16 10:57:40;;;;;;;1.13;0.80;;;;;;;;;;5003520;28;20041;-79
2023/10/16 11:05:24;;;;;;;0.70;0.60;;;;;;;;;;5023209;28;20604;-78
2023/10/16 11:10:42;;;;;;;0.60;0.60;;;;;;;;;;5024121;28;20133;-81
2023/10/16 11:13:12;;;;;;;1.25;1.00;;;;;;;;;;5007451;28;20037;-80
2023/10/16 11:15:54;;;;;;;0.70;0.70;;;;;;;;;;5006534;28;20176;-80
2023/10/16 11:18:28;;;;;;;0.60;0.60;;;;;;;;;;5007194;28;20022;-78
2023/10/16 11:20:58;;;;;;;0.60;0.60;;;;;;;;;;5007326;28;20040;-79
2023/10/16 11:23:31;;;;;;;0.50;0.50;;;;;;;;;;5010257;28;20041;-78
2023/10/16 11:25:58;;;;;;;0.70;0.70;;;;;;;;;;5008265;28;20046;-80
2023/10/16 11:28:28;;;;;;;0.70;0.70;;;;;;;;;;5004405;28;20045;-79
2023/10/16 11:30:56;;;;;;;0.60;0.60;;;;;;;;;;5003954;28;20026;-82
2023/10/16 11:33:45;;;;;;;1.10;0.80;;;;;;;;;;5010512;28;20057;-82
2023/10/16 11:36:13;;;;;;;0.60;0.60;;;;;;;;;;5009496;28;20018;-80
2023/10/16 11:38:40;;;;;;;0.60;0.60;;;;;;;;;;5003706;28;20022;-81
2023/10/16 11:41:12;;;;;;;0.88;0.77;;;;;;;;;;4999416;28;20029;-79
2023/10/16 11:43:47;;;;;;;1.95;1.00;;;;;;;;;;5000902;28;20084;-80
2023/10/16 11:46:29;;;;;;;0.70;0.70;;;;;;;;;;5000968;28;20113;-79
2023/10/16 11:51:48;;;;;;;0.43;0.43;;;;;;;;;;5018055;28;20084;-79
2023/10/16 11:54:21;;;;;;;0.70;0.70;;;;;;;;;;5000130;28;20030;-79
2023/10/16 11:56:59;;;;;;;0.60;0.60;;;;;;;;;;5000396;28;20069;-79
2023/10/16 11:59:25;;;;;;;0.70;0.70;;;;;;;;;;5001543;28;20091;-80
2023/10/16 12:01:52;;;;;;;0.60;0.60;;;;;;;;;;5001746;28;20172;-80
2023/10/16 12:04:19;;;;;;;0.60;0.60;;;;;;;;;;5002922;28;20022;-81
2023/10/16 12:06:47;;;;;;;0.60;0.60;;;;;;;;;;5002813;28;20024;-79
2023/10/16 12:09:13;;;;;;;0.60;0.60;;;;;;;;;;5003030;28;20081;-79
2023/10/16 12:11:43;;;;;;;0.80;0.80;;;;;;;;;;5005050;28;20541;-79
2023/10/16 12:14:13;;;;;;;0.50;0.50;;;;;;;;;;5004993;28;20030;-80
2023/10/16 12:16:45;;;;;;;0.45;0.45;;;;;;;;;;5004310;28;20030;-80
2023/10/16 12:19:12;;;;;;;0.82;0.82;;;;;;;;;;5005486;28;20026;-80
2023/10/16 12:21:38;;;;;;;0.50;0.50;;;;;;;;;;5007340;28;20033;-80
2023/10/16 12:24:04;;;;;;;1.00;0.85;;;;;;;;;;5007541;28;20032;-80
2023/10/16 12:26:31;;;;;;;0.63;0.63;;;;;;;;;;5003395;28;20032;-80
2023/10/16 12:28:59;;;;;;;0.50;0.50;;;;;;;;;;5018746;28;20033;-81
2023/10/16 12:31:26;;;;;;;0.50;0.50;;;;;;;;;;5001151;28;20029;-78
2023/10/16 12:33:55;;;;;;;0.70;0.70;;;;;;;;;;5003888;28;20030;-78
2023/10/16 12:36:23;;;;;;;0.80;0.80;;;;;;;;;;5002448;28;20022;-80
2023/10/16 12:38:49;;;;;;;0.82;0.82;;;;;;;;;;5003215;28;20112;-81
2023/10/16 12:41:15;;;;;;;0.52;0.52;;;;;;;;;;5004188;28;20115;-80
2023/10/16 12:43:43;;;;;;;0.50;0.50;;;;;;;;;;5006924;28;20085;-79
2023/10/16 12:46:09;;;;;;;0.60;0.60;;;;;;;;;;5007156;28;20049;-82
2023/10/16 12:48:35;;;;;;;0.40;0.40;;;;;;;;;;5000503;28;20124;-80
2023/10/16 12:51:01;;;;;;;0.50;0.50;;;;;;;;;;5018782;28;20105;-78
2023/10/16 12:53:31;;;;;;;0.60;0.60;;;;;;;;;;5000762;28;20033;-79
2023/10/16 12:55:58;;;;;;;0.50;0.50;;;;;;;;;;5000453;28;20044;-77
2023/10/16 12:58:26;;;;;;;0.60;0.60;;;;;;;;;;5000197;28;20029;-78
2023/10/16 13:00:52;;;;;;;0.50;0.50;;;;;;;;;;5000964;28;20033;-78
2023/10/16 13:03:20;;;;;;;0.40;0.40;;;;;;;;;;5000033;28;20054;-78
2023/10/16 13:05:52;;;;;;;0.50;0.50;;;;;;;;;;5000317;28;20022;-79
2023/10/16 13:08:20;;;;;;;0.60;0.60;;;;;;;;;;5001639;28;20025;-78
2023/10/16 13:10:50;;;;;;;0.60;0.60;;;;;;;;;;4999375;28;20478;-78
2023/10/16 13:13:21;;;;;;;0.60;0.60;;;;;;;;;;5000187;28;20092;-78
2023/10/16 13:15:54;;;;;;;0.40;0.40;;;;;;;;;;5001302;28;20029;-76
2023/10/16 13:18:30;;;;;;;0.40;0.40;;;;;;;;;;5000796;28;20026;-79
2023/10/16 13:21:07;;;;;;;0.50;0.50;;;;;;;;;;5001578;28;20053;-80
2023/10/16 13:23:36;;;;;;;0.50;0.50;;;;;;;;;;5001652;28;20018;-80
2023/10/16 13:26:03;;;;;;;0.40;0.40;;;;;;;;;;5000953;28;20113;-78
2023/10/16 13:28:30;;;;;;;0.60;0.60;;;;;;;;;;4999163;28;20076;-78
2023/10/16 13:30:56;;;;;;;0.73;0.73;;;;;;;;;;5015953;28;20030;-79
2023/10/16 13:33:23;;;;;;;0.55;0.55;;;;;;;;;;4998055;28;20044;-79
2023/10/16 13:35:50;;;;;;;0.50;0.50;;;;;;;;;;5016159;28;20518;-77
2023/10/16 13:38:18;;;;;;;0.50;0.50;;;;;;;;;;4998093;28;20026;-79
2023/10/16 13:40:46;;;;;;;0.50;0.50;;;;;;;;;;4998794;28;20033;-78
2023/10/16 13:43:12;;;;;;;0.40;0.40;;;;;;;;;;4999738;28;20346;-77
2023/10/16 13:45:40;;;;;;;0.70;0.70;;;;;;;;;;5002370;28;20022;-79
2023/10/16 13:48:09;;;;;;;0.50;0.50;;;;;;;;;;5003827;28;20024;-79
2023/10/16 13:50:36;;;;;;;0.80;0.80;;;;;;;;;;5004570;28;20022;-80
2023/10/16 13:53:08;;;;;;;0.50;0.50;;;;;;;;;;5004522;28;20053;-79
2023/10/16 13:55:34;;;;;;;0.50;0.50;;;;;;;;;;5003005;28;20022;-79
2023/10/16 13:58:01;;;;;;;1.00;0.98;;;;;;;;;;5003421;28;20084;-80
2023/10/16 14:00:31;;;;;;;0.93;0.82;;;;;;;;;;5002328;28;20030;-79
2023/10/16 14:02:57;;;;;;;0.50;0.50;;;;;;;;;;5002127;28;20057;-77
2023/10/16 14:05:24;;;;;;;0.80;0.80;;;;;;;;;;5003638;28;20048;-79
2023/10/16 14:07:53;;;;;;;1.08;0.90;;;;;;;;;;5001966;28;20050;-79
2023/10/16 14:10:21;;;;;;;0.60;0.60;;;;;;;;;;4983598;28;20398;-80
2023/10/16 14:12:58;;;;;;;0.70;0.70;;;;;;;;;;4982913;28;20034;-78
2023/10/16 14:15:26;;;;;;;0.70;0.70;;;;;;;;;;4983796;28;20022;-80
2023/10/16 14:17:57;;;;;;;0.70;0.70;;;;;;;;;;4983541;28;20019;-78
2023/10/16 14:20:36;;;;;;;0.77;0.70;;;;;;;;;;4982563;28;20085;-78
2023/10/16 14:23:03;;;;;;;0.60;0.60;;;;;;;;;;4982559;28;20165;-79
2023/10/16 14:25:33;;;;;;;0.63;0.60;;;;;;;;;;4982561;28;20022;-79
2023/10/16 14:28:11;;;;;;;0.60;0.60;;;;;;;;;;4983793;28;20037;-80
2023/10/16 14:30:39;;;;;;;0.70;0.70;;;;;;;;;;4982553;28;20520;-78
2023/10/16 14:33:07;;;;;;;0.60;0.60;;;;;;;;;;4982475;28;20065;-78
2023/10/16 14:35:37;;;;;;;0.60;0.60;;;;;;;;;;4985971;28;20033;-78
2023/10/16 14:38:04;;;;;;;0.85;0.70;;;;;;;;;;4988200;28;20077;-80
2023/10/16 14:40:32;;;;;;;1.25;0.98;;;;;;;;;;4985791;28;20045;-77
2023/10/16 14:42:58;;;;;;;0.98;0.90;;;;;;;;;;4985312;28;20022;-79
2023/10/16 14:45:25;;;;;;;0.95;0.73;;;;;;;;;;4983723;28;20037;-78
2023/10/16 14:47:52;;;;;;;0.75;0.75;;;;;;;;;;4982863;28;20050;-79
2023/10/16 14:50:18;;;;;;;0.90;0.68;;;;;;;;;;5002681;28;20088;-77
2023/10/16 14:52:47;;;;;;;0.70;0.70;;;;;;;;;;4986803;28;20038;-78
2023/10/16 14:55:17;;;;;;;0.85;0.73;;;;;;;;;;4983125;28;20026;-80
2023/10/16 14:57:43;;;;;;;0.98;0.82;;;;;;;;;;4984544;28;20430;-77
2023/10/16 15:00:12;;;;;;;0.65;0.65;;;;;;;;;;4981981;28;20382;-78
2023/10/16 15:02:39;;;;;;;0.68;0.68;;;;;;;;;;4982493;28;20050;-79
2023/10/16 15:05:12;;;;;;;1.40;0.90;;;;;;;;;;4981611;28;20026;-77
2023/10/16 15:07:38;;;;;;;0.98;0.70;;;;;;;;;;4986140;28;20023;-79
2023/10/16 15:10:07;;;;;;;1.35;0.90;;;;;;;;;;4986901;28;20027;-78
2023/10/16 15:12:33;;;;;;;1.38;1.05;;;;;;;;;;4986562;28;20033;-79
2023/10/16 15:14:59;;;;;;;0.80;0.65;;;;;;;;;;4989815;28;20038;-80
2023/10/16 15:17:26;;;;;;;0.88;0.73;;;;;;;;;;4991944;28;20052;-80
2023/10/16 15:19:54;;;;;;;1.10;0.80;;;;;;;;;;4986856;28;20022;-80
2023/10/16 15:22:20;;;;;;;0.73;0.70;;;;;;;;;;4983004;28;20026;-79
2023/10/16 15:24:46;;;;;;;0.88;0.80;;;;;;;;;;4980981;28;20030;-79
2023/10/16 15:27:12;;;;;;;1.30;0.90;;;;;;;;;;4981506;28;20029;-79
2023/10/16 15:29:38;;;;;;;0.98;0.80;;;;;;;;;;4997575;28;20026;-79
2023/10/16 15:32:07;;;;;;;1.20;0.90;;;;;;;;;;4981824;28;20026;-81
2023/10/16 15:34:34;;;;;;;0.88;0.68;;;;;;;;;;4984870;28;20030;-80
2023/10/16 15:37:00;;;;;;;0.85;0.75;;;;;;;;;;4984790;28;20054;-81
2023/10/16 15:39:28;;;;;;;1.38;0.70;;;;;;;;;;4984139;28;20031;-80
2023/10/16 15:41:54;;;;;;;1.35;0.80;;;;;;;;;;4983840;28;20073;-76
2023/10/16 15:44:22;;;;;;;1.02;0.93;;;;;;;;;;4982867;28;20466;-77
2023/10/16 15:46:49;;;;;;;1.20;0.90;;;;;;;;;;4984462;28;20055;-80
2023/10/16 15:49:19;;;;;;;7.25;0.90;;;;;;;;;;4986861;28;20030;-78
2023/10/16 15:51:45;;;;;;;1.60;0.88;;;;;;;;;;4985379;28;20027;-79
2023/10/16 15:54:14;;;;;;;1.48;1.00;;;;;;;;;;4985157;28;20386;-79
2023/10/16 15:56:40;;;;;;;1.30;1.00;;;;;;;;;;4985217;28;20053;-80
2023/10/16 15:59:08;;;;;;;1.33;1.05;;;;;;;;;;4985903;28;20023;-80
2023/10/16 16:01:34;;;;;;;4.10;1.13;;;;;;;;;;4987525;28;20485;-83
2023/10/16 16:04:01;;;;;;;1.30;0.90;;;;;;;;;;4967922;28;20035;-80
2023/10/16 16:06:29;;;;;;;1.20;0.90;;;;;;;;;;4963669;28;20019;-80
2023/10/16 16:08:55;;;;;;;1.38;0.75;;;;;;;;;;4963172;28;20027;-79
2023/10/16 16:11:27;;;;;;;2.38;0.90;;;;;;;;;;4961647;28;20047;-81
2023/10/16 16:13:53;;;;;;;2.15;1.38;;;;;;;;;;4961470;28;20023;-81
2023/10/16 16:16:21;;;;;;;1.02;0.80;;;;;;;;;;4962520;28;20034;-80
2023/10/16 16:18:48;;;;;;;1.20;1.02;;;;;;;;;;4979732;28;20026;-80
2023/10/16 16:21:16;;;;;;;1.83;1.10;;;;;;;;;;4962777;28;20057;-80
2023/10/16 16:23:43;;;;;;;1.23;0.85;;;;;;;;;;4962404;28;20101;-80
2023/10/16 16:26:13;;;;;;;1.40;0.98;;;;;;;;;;4979729;28;20101;-80
2023/10/16 16:28:39;;;;;;;2.28;1.40;;;;;;;;;;4961966;28;20027;-80
2023/10/16 16:31:07;;;;;;;1.63;1.15;;;;;;;;;;4962759;28;20068;-80
2023/10/16 16:33:33;;;;;;;1.50;1.23;;;;;;;;;;4980592;28;20019;-80
2023/10/16 16:35:59;;;;;;;1.10;1.00;;;;;;;;;;4962006;28;20023;-79
2023/10/16 16:38:25;;;;;;;4.25;1.00;;;;;;;;;;4977573;28;20480;-79
2023/10/16 16:40:51;;;;;;;1.05;0.90;;;;;;;;;;4960554;28;20033;-79
2023/10/16 16:43:19;;;;;;;2.60;1.15;;;;;;;;;;4960989;28;20029;-79
2023/10/16 16:45:48;;;;;;;1.30;1.00;;;;;;;;;;4960631;28;20026;-81
2023/10/16 16:48:14;;;;;;;1.73;1.10;;;;;;;;;;4961472;28;20026;-79
2023/10/16 16:50:40;;;;;;;1.50;0.80;;;;;;;;;;4963145;28;20030;-78
2023/10/16 16:53:07;;;;;;;1.23;0.82;;;;;;;;;;4972204;28;20058;-78
2023/10/16 16:55:34;;;;;;;2.88;1.88;;;;;;;;;;4964443;28;20023;-80
2023/10/16 16:58:00;;;;;;;2.00;1.13;;;;;;;;;;4960801;28;20023;-80
2023/10/16 17:00:28;;;;;;;1.25;1.00;;;;;;;;;;4959255;28;20049;-79
2023/10/16 17:02:55;;;;;;;1.70;0.98;;;;;;;;;;4967052;28;20105;-81